Winnetoon, Nebraska
Current Conditions -  °F | °C
As of 6:55 PM on Sunday 23 Nov 2014 (Local Time) from KONL Reporting Station
Broken Clouds Broken Clouds  
Wind Chill: 23°   Ceiling: 3500
Heat Index: 36°   Visibility: 10mi
Dew Point: 26°   Wind: 29mph
Humidity: 67%   Direction: 310°NW
Pressure: 29.64"   Gusts: 39mph
Location:  42.51°N, 97.96°W
Report Text: KONL 240055Z AUTO 31025G34KT 10SM BKN035 02/M03 A2964 RMK AO2 T00221034
Loading
Personal Weather Stations






























Interactive Weather Map New forecast layout! Learn more

10-Day Weather Forecast

Advertisements
Track Severe Weather on mobile